Ryton, United Kingdom
Current Conditions -  °F | °C
As of 2:20 PM on Tuesday 21 Oct 2014 (Local Time) from EGNT Reporting Station
Few Clouds Few Clouds  
Wind Chill: 52°   Ceiling: Unl
Heat Index: 52°   Visibility: 6mi
Dew Point: 34°   Wind: 29mph
Humidity: 50%   Direction: 300°WNW
Pressure: 29.47"   Gusts: 45mph
Location:  54.97°N, 1.77°W
Report Text: EGNT 211320Z 30025G39KT 9999 FEW034 11/01 Q0998
Loading
Personal Weather Stations






























Interactive Weather Map
Tropical Storm Tracking
New forecast layout! Learn more

10-Day Weather Forecast

Advertisements
Track Severe Weather on mobile